Terminal Aerodrome Forecast
Issued by NWS

Home | Current Version | Previous Version | Text Only | Print | Product List | Glossary On
Versions: 1 2 3 4 5 6 7 8 9 10 11 12 13 14 15 16 17 18 19
000
FTUS45 KBOU 251138
TAFBJC
TAF
KBJC 251138Z 2512/2612 VRB04KT P6SM SKC
     FM251800 12007KT P6SM SKC
     FM252100 08007KT P6SM SKC
     FM260200 VRB04KT P6SM SKC
     FM260500 26008KT P6SM FEW140 SCT250
     FM261100 28014KT P6SM SCT140 BKN200=

USA.gov is the U.S. government's official web portal to all federal, state and local government web resources and services.